Bingham, Illinois
Current Conditions -  °F | °C
As of 3:15 AM on Monday 20 Oct 2014 (Local Time) from K3LF Reporting Station
Clear Clear  
Wind Chill: 51°   Ceiling: Unl
Heat Index: 51°   Visibility: 10mi
Dew Point: 46°   Wind: 6mph
Humidity: 82%   Direction: 190°S
Pressure: 29.97"   Gusts: NA
Location:  39.11°N, 89.21°W
Report Text: K3LF 200815Z AUTO 19005KT 10SM CLR 11/08 A2997 RMK AO2 T01060076
Loading
Personal Weather Stations






























Interactive Weather Map
Tropical Storm Tracking
New forecast layout! Learn more

10-Day Weather Forecast

Advertisements
Track Severe Weather on mobile